createdAt,value
2022-09-14T00:04:06.992Z,2.70
2022-09-14T00:09:13.560Z,2.57
2022-09-14T00:14:18.021Z,2.47
2022-09-14T00:19:22.333Z,2.63
2022-09-14T00:24:28.696Z,2.20
2022-09-14T00:29:32.732Z,2.20
2022-09-14T00:34:34.516Z,2.40
2022-09-14T00:39:36.477Z,2.30
2022-09-14T00:45:06.550Z,2.27
2022-09-14T00:50:10.075Z,2.53
2022-09-14T00:55:15.926Z,2.60
2022-09-14T01:00:25.106Z,2.10
2022-09-14T01:05:36.724Z,2.17
2022-09-14T01:11:00.329Z,2.60
2022-09-14T01:16:16.513Z,2.47
2022-09-14T01:21:24.093Z,2.27
2022-09-14T01:27:23.028Z,2.40
2022-09-14T01:32:30.710Z,2.30
2022-09-14T01:37:38.383Z,2.50
2022-09-14T01:42:42.326Z,2.30
2022-09-14T01:47:48.882Z,2.37
2022-09-14T01:52:55.549Z,2.13
2022-09-14T01:58:02.285Z,2.70
2022-09-14T02:03:12.255Z,2.43
2022-09-14T02:08:14.899Z,1.90
2022-09-14T02:13:17.459Z,2.17
2022-09-14T02:18:22.011Z,2.00
2022-09-14T02:23:24.620Z,2.10
2022-09-14T02:28:26.425Z,2.10
2022-09-14T02:33:40.234Z,2.10
2022-09-14T02:38:52.985Z,1.80
2022-09-14T02:44:03.080Z,2.30
2022-09-14T02:49:11.691Z,2.20
2022-09-14T02:54:17.119Z,2.30
2022-09-14T02:59:18.899Z,2.47
2022-09-14T03:04:22.389Z,2.37
2022-09-14T03:09:24.463Z,2.53
2022-09-14T03:14:26.566Z,2.50
2022-09-14T03:19:29.985Z,2.20
2022-09-14T03:24:32.001Z,2.30
2022-09-14T03:29:34.049Z,2.43
2022-09-14T03:34:37.640Z,2.13
2022-09-14T03:39:39.555Z,2.47
2022-09-14T03:44:41.530Z,2.47
2022-09-14T03:49:44.864Z,2.60
2022-09-14T03:54:46.776Z,3.20
2022-09-14T03:59:48.720Z,2.70
2022-09-14T04:04:51.730Z,2.57
2022-09-14T04:09:53.464Z,2.40
2022-09-14T04:14:55.056Z,2.43
2022-09-14T04:19:58.434Z,2.50
2022-09-14T04:25:00.664Z,2.70
2022-09-14T04:30:02.327Z,2.97
2022-09-14T04:35:05.791Z,2.80
2022-09-14T04:40:08.294Z,2.40
2022-09-14T04:45:11.310Z,1.90
2022-09-14T04:50:14.990Z,2.83
2022-09-14T04:55:17.239Z,2.60
2022-09-14T05:00:19.471Z,2.83
2022-09-14T05:05:22.401Z,2.80
2022-09-14T05:10:24.401Z,2.30
2022-09-14T05:15:25.972Z,2.47
2022-09-14T05:20:29.339Z,2.57
2022-09-14T05:25:31.207Z,2.60
2022-09-14T05:30:32.991Z,2.70
2022-09-14T05:35:36.275Z,3.50
2022-09-14T05:40:39.013Z,2.87
2022-09-14T05:45:40.702Z,2.90
2022-09-14T05:50:44.421Z,3.20
2022-09-14T05:55:46.374Z,2.90
2022-09-14T06:00:48.013Z,3.57
2022-09-14T06:05:51.244Z,4.07
2022-09-14T06:10:53.029Z,4.03
2022-09-14T06:15:55.323Z,3.63
2022-09-14T06:20:58.977Z,3.73
2022-09-14T06:26:02.845Z,3.30
2022-09-14T06:31:14.898Z,3.10
2022-09-14T06:36:22.963Z,3.20
2022-09-14T06:41:26.860Z,2.60
2022-09-14T06:46:30.794Z,2.93
2022-09-14T06:51:36.407Z,2.10
2022-09-14T06:56:40.192Z,2.40
2022-09-14T07:01:42.655Z,2.00
2022-09-14T07:06:47.971Z,1.80
2022-09-14T07:11:49.625Z,2.13
2022-09-14T07:16:51.624Z,1.43
2022-09-14T07:21:54.992Z,1.43
2022-09-14T07:26:57.133Z,1.60
2022-09-14T07:31:59.058Z,1.77
2022-09-14T07:37:02.034Z,1.50
2022-09-14T07:42:04.165Z,1.50
2022-09-14T07:47:05.860Z,1.70
2022-09-14T07:52:08.846Z,1.17
2022-09-14T07:57:10.511Z,1.30
2022-09-14T08:02:12.625Z,1.60
2022-09-14T08:07:15.621Z,1.07
2022-09-14T08:12:17.295Z,1.30
2022-09-14T08:17:19.387Z,1.00
2022-09-14T08:22:22.435Z,1.20
2022-09-14T08:27:24.703Z,1.17
2022-09-14T08:32:26.823Z,1.10
2022-09-14T08:37:29.795Z,1.50
2022-09-14T08:42:32.043Z,1.20
2022-09-14T08:47:35.772Z,0.90
2022-09-14T08:52:41.663Z,1.30
2022-09-14T08:57:48.101Z,0.97
2022-09-14T09:03:11.238Z,1.27
2022-09-14T09:08:21.262Z,1.10
2022-09-14T09:13:26.447Z,1.70
2022-09-14T09:18:36.296Z,1.20
2022-09-14T09:23:41.057Z,0.93
2022-09-14T09:28:46.331Z,0.90
2022-09-14T09:33:50.498Z,0.90
2022-09-14T09:38:53.927Z,1.30
2022-09-14T09:44:01.174Z,1.40
2022-09-14T09:49:14.230Z,0.93
2022-09-14T09:54:27.585Z,1.20
2022-09-14T09:59:32.784Z,1.10
2022-09-14T10:04:34.883Z,1.57
2022-09-14T10:09:37.962Z,1.00
2022-09-14T10:14:40.638Z,1.00
2022-09-14T10:19:47.252Z,0.80
2022-09-14T10:24:56.688Z,1.27
2022-09-14T10:30:02.672Z,1.13
2022-09-14T10:35:12.044Z,1.13
2022-09-14T10:40:19.608Z,1.37
2022-09-14T10:45:28.119Z,1.10
2022-09-14T10:50:43.911Z,1.73
2022-09-14T10:55:57.686Z,1.43
2022-09-14T11:01:11.631Z,0.80
2022-09-14T11:06:26.072Z,1.00
2022-09-14T11:11:41.345Z,1.20
2022-09-14T11:16:56.620Z,0.93
2022-09-14T11:22:06.069Z,1.10
2022-09-14T11:27:16.011Z,0.90
2022-09-14T11:32:22.562Z,1.13
2022-09-14T11:37:31.244Z,1.30
2022-09-14T11:42:40.621Z,1.57
2022-09-14T11:47:48.129Z,1.10
2022-09-14T11:53:04.614Z,1.13
2022-09-14T11:58:18.437Z,1.23
2022-09-14T12:03:22.414Z,0.80
2022-09-14T12:08:37.792Z,0.60
2022-09-14T12:13:41.150Z,0.83
2022-09-14T12:18:46.178Z,0.70
2022-09-14T12:23:49.315Z,0.93
2022-09-14T12:28:55.433Z,0.70
2022-09-14T12:34:21.975Z,0.80
2022-09-14T12:39:25.467Z,1.10
2022-09-14T12:44:38.185Z,1.00
2022-09-14T12:49:39.919Z,1.07
2022-09-14T12:54:54.829Z,0.97
2022-09-14T13:00:05.886Z,0.70
2022-09-14T13:05:14.712Z,1.20
2022-09-14T13:10:20.769Z,0.90
2022-09-14T13:15:27.018Z,0.80
2022-09-14T13:20:30.716Z,1.33
2022-09-14T13:25:35.151Z,1.10
2022-09-14T13:30:40.068Z,1.10
2022-09-14T13:35:47.172Z,0.90
2022-09-14T13:40:51.294Z,1.10
2022-09-14T13:45:55.393Z,1.23
2022-09-14T13:50:58.186Z,1.23
2022-09-14T13:56:00.459Z,0.80
2022-09-14T14:01:04.774Z,0.90
2022-09-14T14:06:23.967Z,0.83
2022-09-14T14:11:33.444Z,0.90
2022-09-14T14:16:37.135Z,1.10
2022-09-14T14:21:40.019Z,1.20
2022-09-14T14:26:48.780Z,0.90
2022-09-14T14:31:55.033Z,0.90
2022-09-14T14:36:57.930Z,1.27
2022-09-14T14:42:01.832Z,1.10
2022-09-14T14:47:06.825Z,1.10
2022-09-14T14:52:10.399Z,1.37
2022-09-14T14:57:12.756Z,1.43
2022-09-14T15:02:16.313Z,1.00
2022-09-14T15:07:18.385Z,1.50
2022-09-14T15:12:20.732Z,1.37
2022-09-14T15:17:24.138Z,1.57
2022-09-14T15:22:25.856Z,1.00
2022-09-14T15:27:27.704Z,0.87
2022-09-14T15:32:31.244Z,1.17
2022-09-14T15:37:33.462Z,1.10
2022-09-14T15:42:35.703Z,1.30
2022-09-14T15:47:42.552Z,1.30
2022-09-14T15:52:44.591Z,1.40
2022-09-14T15:57:46.903Z,2.90
2022-09-14T16:02:50.337Z,3.87
2022-09-14T16:07:53.423Z,2.10
2022-09-14T16:12:56.145Z,2.73
2022-09-14T16:17:59.323Z,5.33
2022-09-14T16:23:01.995Z,5.53
2022-09-14T16:28:04.186Z,3.80
2022-09-14T16:33:07.659Z,2.20
2022-09-14T16:38:09.668Z,1.77
2022-09-14T16:43:11.377Z,1.20
2022-09-14T16:48:14.961Z,1.50
2022-09-14T16:53:18.230Z,1.23
2022-09-14T16:58:19.894Z,1.30
2022-09-14T17:03:25.250Z,1.47
2022-09-14T17:08:30.160Z,1.80
2022-09-14T17:13:32.808Z,1.73
2022-09-14T17:18:38.247Z,2.10
2022-09-14T17:23:41.020Z,1.70
2022-09-14T17:28:42.707Z,1.73
2022-09-14T17:33:45.977Z,1.33
2022-09-14T17:38:48.984Z,3.30
2022-09-14T17:43:52.630Z,1.90
2022-09-14T17:48:57.339Z,1.87
2022-09-14T17:54:01.464Z,1.60
2022-09-14T17:59:05.728Z,1.70
2022-09-14T18:04:11.337Z,2.30
2022-09-14T18:09:14.944Z,1.70
2022-09-14T18:14:17.872Z,1.70
2022-09-14T18:19:20.998Z,2.20
2022-09-14T18:24:22.616Z,2.90
2022-09-14T18:29:24.427Z,2.90
2022-09-14T18:34:27.726Z,1.70
2022-09-14T18:39:29.587Z,1.50
2022-09-14T18:44:31.341Z,4.03
2022-09-14T18:49:35.098Z,6.07
2022-09-14T18:54:36.964Z,7.30
2022-09-14T18:59:38.723Z,7.50
2022-09-14T19:04:42.570Z,9.67
2022-09-14T19:09:44.498Z,3.27
2022-09-14T19:14:46.666Z,1.83
2022-09-14T19:19:50.383Z,1.90
2022-09-14T19:24:52.705Z,1.60
2022-09-14T19:29:55.197Z,1.40
2022-09-14T19:34:58.748Z,1.90
2022-09-14T19:40:01.100Z,1.20
2022-09-14T19:45:03.345Z,1.57
2022-09-14T19:50:08.175Z,1.50
2022-09-14T19:55:09.892Z,1.93
2022-09-14T20:00:17.480Z,1.40
2022-09-14T20:05:21.107Z,1.63
2022-09-14T20:10:22.733Z,2.47
2022-09-14T20:15:24.803Z,1.97
2022-09-14T20:20:28.181Z,1.40
2022-09-14T20:25:29.859Z,1.87
2022-09-14T20:30:32.023Z,1.80
2022-09-14T20:35:35.163Z,1.90
2022-09-14T20:40:37.108Z,1.77
2022-09-14T20:45:39.131Z,2.20
2022-09-14T20:50:51.599Z,1.83
2022-09-14T20:55:54.139Z,2.40
2022-09-14T21:01:00.287Z,2.40
2022-09-14T21:06:05.248Z,2.27
2022-09-14T21:11:08.850Z,1.93
2022-09-14T21:16:14.205Z,2.47
2022-09-14T21:21:19.062Z,2.40
2022-09-14T21:26:21.129Z,2.50
2022-09-14T21:31:23.985Z,2.17
2022-09-14T21:36:28.916Z,2.37
2022-09-14T21:41:32.013Z,2.47
2022-09-14T21:46:34.610Z,2.40
2022-09-14T21:51:38.107Z,2.20
2022-09-14T21:56:43.290Z,2.40
2022-09-14T22:01:45.773Z,2.27
2022-09-14T22:06:50.118Z,2.43
2022-09-14T22:11:52.161Z,2.00
2022-09-14T22:16:54.036Z,2.70
2022-09-14T22:21:57.545Z,2.20
2022-09-14T22:26:59.639Z,1.80
2022-09-14T22:32:01.998Z,1.80
2022-09-14T22:37:06.960Z,1.70
2022-09-14T22:42:10.966Z,2.00
2022-09-14T22:47:15.085Z,1.80
2022-09-14T22:52:21.456Z,1.80
2022-09-14T22:57:24.780Z,2.00
2022-09-14T23:02:27.875Z,1.67
2022-09-14T23:07:32.735Z,2.30
2022-09-14T23:12:36.991Z,2.10
2022-09-14T23:17:39.967Z,2.17
2022-09-14T23:22:44.661Z,2.23
2022-09-14T23:27:47.793Z,2.00
2022-09-14T23:32:53.912Z,2.40
2022-09-14T23:37:59.386Z,2.37
2022-09-14T23:43:03.915Z,2.07
2022-09-14T23:48:07.939Z,2.07
2022-09-14T23:53:13.818Z,2.30
2022-09-14T23:58:16.125Z,2.10
